Time;durP1;ratioP1;P1;durP2;ratioP2;P2;SDS_P1;SDS_P2;PMS_P1;PMS_P2;Temp;Humidity;BMP_temperature;BMP_pressure;BME280_temperature;BME280_humidity;BME280_pressure;Samples;Min_cycle;Max_cycle;Signal;HPM_P1;HPM_P2
2023/09/25 00:02:23;;;;;;;12.00;10.90;;;22.20;99.90;;;;;;6230758;28;89207;-68
2023/09/25 00:05:25;;;;;;;12.70;11.40;;;22.20;99.90;;;;;;6228411;28;89569;-68
2023/09/25 00:08:29;;;;;;;12.20;11.00;;;22.20;99.90;;;;;;6223607;28;89088;-68
2023/09/25 00:11:31;;;;;;;12.02;10.82;;;22.20;99.90;;;;;;6236878;28;89158;-68
2023/09/25 00:14:33;;;;;;;12.48;11.00;;;22.20;99.90;;;;;;6229139;28;89105;-68
2023/09/25 00:17:36;;;;;;;12.00;10.80;;;22.20;99.90;;;;;;6221047;28;89259;-67
2023/09/25 00:20:38;;;;;;;11.93;10.73;;;22.20;99.90;;;;;;6228446;28;88896;-68
2023/09/25 00:23:42;;;;;;;11.52;10.32;;;22.20;99.90;;;;;;6224449;28;89052;-68
2023/09/25 00:26:44;;;;;;;11.23;10.13;;;22.20;99.90;;;;;;6234834;28;89157;-68
2023/09/25 00:29:46;;;;;;;11.70;10.55;;;22.10;99.90;;;;;;6230029;28;90069;-67
2023/09/25 00:32:50;;;;;;;11.20;10.10;;;22.20;99.90;;;;;;6228791;28;89051;-67
2023/09/25 00:35:53;;;;;;;11.95;10.75;;;22.20;99.90;;;;;;6229754;28;89051;-68
2023/09/25 00:38:56;;;;;;;10.77;9.77;;;22.20;99.90;;;;;;6230148;28;88105;-67
2023/09/25 00:42:00;;;;;;;11.63;10.43;;;22.10;99.90;;;;;;6232322;28;89163;-67
2023/09/25 00:45:02;;;;;;;12.55;10.88;;;22.20;99.90;;;;;;6206436;28;89188;-67
2023/09/25 00:48:06;;;;;;;11.55;10.45;;;22.20;99.90;;;;;;6228396;28;89740;-67
2023/09/25 00:51:08;;;;;;;11.68;10.48;;;22.20;99.90;;;;;;6234755;28;88585;-67
2023/09/25 00:54:11;;;;;;;10.82;9.82;;;22.20;99.90;;;;;;6241973;27;88932;-67
2023/09/25 00:57:13;;;;;;;11.43;10.23;;;22.10;99.90;;;;;;6239699;27;88998;-67
2023/09/25 01:00:17;;;;;;;12.00;10.65;;;22.10;99.90;;;;;;6229546;28;90009;-67
2023/09/25 01:03:19;;;;;;;10.80;9.65;;;22.20;99.90;;;;;;6229239;28;88533;-67
2023/09/25 01:06:22;;;;;;;10.07;9.07;;;22.10;99.90;;;;;;6220373;28;89210;-67
2023/09/25 01:09:25;;;;;;;10.13;9.13;;;22.20;99.90;;;;;;6234830;28;89049;-67
2023/09/25 01:12:27;;;;;;;10.02;9.05;;;22.10;99.90;;;;;;6228161;28;89075;-67
2023/09/25 01:15:29;;;;;;;10.07;9.10;;;22.10;99.90;;;;;;6227379;28;89379;-67
2023/09/25 01:18:31;;;;;;;10.15;9.15;;;22.10;99.90;;;;;;6232756;28;89584;-67
2023/09/25 01:21:34;;;;;;;10.10;9.07;;;22.10;99.90;;;;;;6231198;28;88438;-68
2023/09/25 01:24:38;;;;;;;9.70;8.70;;;22.10;99.90;;;;;;6232812;28;87981;-67
2023/09/25 01:27:42;;;;;;;9.60;8.70;;;22.10;99.90;;;;;;6223286;28;87982;-68
2023/09/25 01:30:44;;;;;;;11.45;9.13;;;22.10;99.90;;;;;;6218748;28;89980;-68
2023/09/25 01:33:46;;;;;;;9.50;8.60;;;22.10;99.90;;;;;;6230564;28;89044;-68
2023/09/25 01:36:48;;;;;;;10.18;9.05;;;22.10;99.90;;;;;;6233390;28;89983;-68
2023/09/25 01:39:52;;;;;;;9.88;8.88;;;22.10;99.90;;;;;;6230903;28;89026;-67
2023/09/25 01:42:54;;;;;;;9.50;8.55;;;22.10;99.90;;;;;;6225264;28;89079;-68
2023/09/25 01:45:56;;;;;;;9.18;8.27;;;22.10;99.90;;;;;;6226629;28;89044;-67
2023/09/25 01:48:59;;;;;;;8.63;7.82;;;22.10;99.90;;;;;;6230470;28;89199;-68
2023/09/25 01:52:07;;;;;;;9.65;8.75;;;22.10;99.90;;;;;;6222435;28;88371;-67
2023/09/25 01:55:11;;;;;;;10.35;8.60;;;22.10;99.90;;;;;;6231453;28;89112;-67
2023/09/25 01:58:13;;;;;;;9.43;8.52;;;22.10;99.90;;;;;;6221167;28;89071;-67
2023/09/25 02:01:14;;;;;;;8.90;8.00;;;22.10;99.90;;;;;;6222293;28;90005;-67
2023/09/25 02:04:17;;;;;;;9.50;8.55;;;22.10;99.90;;;;;;6227260;28;88971;-68
2023/09/25 02:07:20;;;;;;;8.95;8.05;;;22.10;99.90;;;;;;6230084;28;89471;-68
2023/09/25 02:10:23;;;;;;;9.23;8.32;;;22.10;99.90;;;;;;6227962;28;89078;-68
2023/09/25 02:13:26;;;;;;;8.65;7.75;;;22.10;99.90;;;;;;6217781;28;89051;-68
2023/09/25 02:16:29;;;;;;;8.90;8.00;;;22.10;99.90;;;;;;6215949;28;89047;-68
2023/09/25 02:19:31;;;;;;;8.25;7.45;;;22.10;99.90;;;;;;6230762;28;89031;-68
2023/09/25 02:22:33;;;;;;;8.50;7.63;;;22.10;99.90;;;;;;6243727;28;88384;-68
2023/09/25 02:25:36;;;;;;;9.15;7.80;;;22.10;99.90;;;;;;6245533;28;89106;-68
2023/09/25 02:28:38;;;;;;;8.80;7.88;;;22.10;99.90;;;;;;6243977;27;89049;-68
2023/09/25 02:31:40;;;;;;;10.40;8.48;;;22.10;99.90;;;;;;6230781;28;90050;-68
2023/09/25 02:34:42;;;;;;;7.93;7.00;;;22.10;99.90;;;;;;6224839;27;89138;-69
2023/09/25 02:37:44;;;;;;;8.27;7.47;;;22.10;99.90;;;;;;6231540;28;89076;-68
2023/09/25 02:40:47;;;;;;;7.80;7.00;;;22.10;99.90;;;;;;6229377;28;89023;-68
2023/09/25 02:43:49;;;;;;;8.40;7.50;;;22.10;99.90;;;;;;6243802;28;89058;-68
2023/09/25 02:46:51;;;;;;;7.53;6.82;;;22.10;99.90;;;;;;6228821;28;89217;-69
2023/09/25 02:49:54;;;;;;;10.35;7.90;;;22.10;99.90;;;;;;6224748;28;89112;-69
2023/09/25 02:52:56;;;;;;;8.60;7.70;;;22.10;99.90;;;;;;6227897;28;88311;-68
2023/09/25 02:55:59;;;;;;;7.72;6.93;;;22.10;99.90;;;;;;6230746;28;89128;-68
2023/09/25 02:59:01;;;;;;;8.30;7.45;;;22.10;99.90;;;;;;6229959;28;89418;-68
2023/09/25 03:02:03;;;;;;;8.02;7.22;;;22.10;99.90;;;;;;6227020;28;90049;-68
2023/09/25 03:05:06;;;;;;;7.57;6.75;;;22.10;99.90;;;;;;6230528;28;89106;-68
2023/09/25 03:08:08;;;;;;;7.85;7.05;;;22.10;99.90;;;;;;6232059;28;89305;-68
2023/09/25 03:11:11;;;;;;;8.27;7.47;;;22.00;99.90;;;;;;6248258;27;88931;-68
2023/09/25 03:14:14;;;;;;;8.38;7.55;;;22.00;99.90;;;;;;6239503;27;89311;-67
2023/09/25 03:17:16;;;;;;;7.55;6.85;;;22.10;99.90;;;;;;6222584;28;89050;-68
2023/09/25 03:20:18;;;;;;;8.20;6.72;;;22.10;99.90;;;;;;6228522;28;89179;-68
2023/09/25 03:23:20;;;;;;;8.02;7.22;;;22.10;99.90;;;;;;6232820;28;88292;-68
2023/09/25 03:26:23;;;;;;;7.78;6.97;;;22.10;99.90;;;;;;6240155;28;89232;-67
2023/09/25 03:29:25;;;;;;;7.65;6.93;;;22.00;99.90;;;;;;6230000;28;88991;-67
2023/09/25 03:32:27;;;;;;;9.75;7.88;;;22.10;99.90;;;;;;6227763;28;90001;-67
2023/09/25 03:35:29;;;;;;;7.53;6.80;;;22.10;99.90;;;;;;6214681;28;89382;-68
2023/09/25 03:38:31;;;;;;;7.78;7.00;;;22.10;99.90;;;;;;6231415;28;89090;-67
2023/09/25 03:41:35;;;;;;;8.88;7.82;;;22.10;99.90;;;;;;6232572;28;88092;-68
2023/09/25 03:44:37;;;;;;;8.50;7.53;;;22.10;99.90;;;;;;6234299;28;88057;-68
2023/09/25 03:47:39;;;;;;;8.35;7.55;;;22.10;99.90;;;;;;6240001;27;89098;-67
2023/09/25 03:50:41;;;;;;;8.40;7.50;;;22.10;99.90;;;;;;6232309;28;89010;-68
2023/09/25 03:53:43;;;;;;;9.77;7.60;;;22.00;99.90;;;;;;6233342;28;88298;-68
2023/09/25 03:56:46;;;;;;;8.50;7.68;;;22.10;99.90;;;;;;6229729;28;88990;-68
2023/09/25 03:59:48;;;;;;;9.48;7.50;;;22.10;99.90;;;;;;6231619;28;89350;-68
2023/09/25 04:02:50;;;;;;;9.45;7.63;;;22.10;99.90;;;;;;6230274;28;89996;-68
2023/09/25 04:05:52;;;;;;;11.60;8.20;;;22.10;99.90;;;;;;6230382;28;89141;-69
2023/09/25 04:08:54;;;;;;;8.40;7.55;;;22.10;99.90;;;;;;6227065;28;89178;-70
2023/09/25 04:11:59;;;;;;;8.98;7.80;;;22.10;99.90;;;;;;6219661;28;89864;-69
2023/09/25 04:15:01;;;;;;;10.90;7.38;;;22.10;99.90;;;;;;6226378;28;89024;-68
2023/09/25 04:18:06;;;;;;;8.23;7.03;;;22.10;99.90;;;;;;6232996;28;88966;-68
2023/09/25 04:21:11;;;;;;;9.10;7.22;;;22.10;99.90;;;;;;6229161;28;87965;-69
2023/09/25 04:24:13;;;;;;;9.55;7.47;;;22.10;99.90;;;;;;6225211;28;88436;-68
2023/09/25 04:27:16;;;;;;;11.57;8.27;;;22.10;99.90;;;;;;6211229;28;89173;-69
2023/09/25 04:30:19;;;;;;;11.23;8.40;;;22.10;99.90;;;;;;6225415;28;89069;-68
2023/09/25 04:33:21;;;;;;;9.02;7.47;;;22.10;99.90;;;;;;6210497;28;89912;-68
2023/09/25 04:36:23;;;;;;;8.93;7.53;;;22.10;99.90;;;;;;6224554;27;87955;-69
2023/09/25 04:39:25;;;;;;;8.60;7.22;;;22.10;99.90;;;;;;6232409;28;88032;-68
2023/09/25 04:42:29;;;;;;;10.25;7.63;;;22.10;99.90;;;;;;6231648;28;89202;-69
2023/09/25 04:45:31;;;;;;;10.00;7.32;;;22.10;99.90;;;;;;6220665;27;87950;-69
2023/09/25 04:48:36;;;;;;;10.05;7.93;;;22.10;99.90;;;;;;6232109;28;89528;-68
2023/09/25 04:51:38;;;;;;;8.70;7.55;;;22.10;99.90;;;;;;6211844;28;89233;-68
2023/09/25 04:54:40;;;;;;;8.07;7.10;;;22.10;99.90;;;;;;6214146;28;88403;-69
2023/09/25 04:57:46;;;;;;;9.10;7.80;;;22.00;99.90;;;;;;6231883;28;89053;-69
2023/09/25 05:00:48;;;;;;;8.90;7.10;;;22.10;99.90;;;;;;6224445;28;89203;-68
2023/09/25 05:03:50;;;;;;;8.38;7.53;;;22.10;99.90;;;;;;6231646;28;89991;-68
2023/09/25 05:06:52;;;;;;;7.75;7.03;;;22.10;99.90;;;;;;6231912;28;88933;-68
2023/09/25 05:09:54;;;;;;;8.88;7.50;;;22.10;99.90;;;;;;6220610;28;89146;-68
2023/09/25 05:12:58;;;;;;;8.77;7.53;;;22.10;99.90;;;;;;6225442;28;89024;-68
2023/09/25 05:16:02;;;;;;;10.70;7.95;;;22.10;99.90;;;;;;6229260;28;89070;-68
2023/09/25 05:19:04;;;;;;;8.98;7.60;;;22.10;99.90;;;;;;6219271;28;89026;-68
2023/09/25 05:22:06;;;;;;;8.05;7.25;;;22.10;99.90;;;;;;6210401;28;89082;-69
2023/09/25 05:25:10;;;;;;;7.63;6.93;;;22.10;99.90;;;;;;6222653;27;88417;-68
2023/09/25 05:28:13;;;;;;;7.70;6.90;;;22.10;99.90;;;;;;6220734;28;89099;-68
2023/09/25 05:31:15;;;;;;;8.40;7.53;;;22.10;99.90;;;;;;6215980;28;89032;-68
2023/09/25 05:34:17;;;;;;;8.48;6.80;;;22.10;99.90;;;;;;6223146;28;90031;-68
2023/09/25 05:37:19;;;;;;;8.02;7.20;;;22.10;99.90;;;;;;6228618;28;88841;-68
2023/09/25 05:40:21;;;;;;;7.40;6.70;;;22.10;99.90;;;;;;6218344;28;89063;-68
2023/09/25 05:43:25;;;;;;;8.52;7.47;;;22.10;99.90;;;;;;6223536;28;89053;-68
2023/09/25 05:46:27;;;;;;;8.23;7.25;;;22.10;99.90;;;;;;6211035;28;89115;-68
2023/09/25 05:49:28;;;;;;;10.68;7.60;;;22.10;99.90;;;;;;6228466;28;89045;-68
2023/09/25 05:52:31;;;;;;;9.02;6.95;;;22.10;99.90;;;;;;6207391;28;89093;-68
2023/09/25 05:55:33;;;;;;;7.72;6.53;;;22.00;99.90;;;;;;6232945;28;88343;-69
2023/09/25 05:58:37;;;;;;;7.70;6.72;;;22.10;99.90;;;;;;6216802;28;89013;-68
2023/09/25 06:01:39;;;;;;;7.72;6.85;;;22.10;99.90;;;;;;6217753;28;89298;-68
2023/09/25 06:04:41;;;;;;;7.55;6.40;;;22.10;99.90;;;;;;6219164;28;90041;-69
2023/09/25 06:07:43;;;;;;;7.30;6.60;;;22.10;99.90;;;;;;6237189;28;89377;-69
2023/09/25 06:10:45;;;;;;;11.73;8.38;;;22.10;99.90;;;;;;6207000;28;89146;-69
2023/09/25 06:13:49;;;;;;;7.85;7.05;;;22.10;99.90;;;;;;6227585;28;89074;-68
2023/09/25 06:16:54;;;;;;;7.60;6.85;;;22.10;99.90;;;;;;6230978;28;90168;-68
2023/09/25 06:19:56;;;;;;;7.53;6.82;;;22.10;99.90;;;;;;6230002;28;87952;-69
2023/09/25 06:23:00;;;;;;;7.60;6.90;;;22.10;99.90;;;;;;6231014;28;89017;-69
2023/09/25 06:26:02;;;;;;;7.40;6.70;;;22.10;99.90;;;;;;6230400;28;87210;-69
2023/09/25 06:29:06;;;;;;;8.15;7.15;;;22.10;99.90;;;;;;6228370;28;89157;-68
2023/09/25 06:32:08;;;;;;;7.57;6.88;;;22.00;99.90;;;;;;6251496;28;89024;-68
2023/09/25 06:35:10;;;;;;;7.55;6.85;;;22.10;99.90;;;;;;6227288;28;90009;-69
2023/09/25 06:38:12;;;;;;;8.02;7.22;;;22.10;99.90;;;;;;6251794;27;89110;-68
2023/09/25 06:41:14;;;;;;;9.63;7.38;;;22.10;99.90;;;;;;6236766;28;88344;-68
2023/09/25 06:44:17;;;;;;;7.40;6.70;;;22.10;99.90;;;;;;6226563;28;89069;-68
2023/09/25 06:47:20;;;;;;;9.48;6.90;;;22.10;99.90;;;;;;6238589;28;89070;-68
2023/09/25 06:50:23;;;;;;;6.97;6.28;;;22.10;99.90;;;;;;6237567;28;89075;-69
2023/09/25 06:53:25;;;;;;;7.45;6.72;;;22.10;99.90;;;;;;6237922;28;89108;-69
2023/09/25 06:56:27;;;;;;;7.45;6.65;;;22.10;99.90;;;;;;6245552;27;88285;-68
2023/09/25 06:59:32;;;;;;;9.13;6.90;;;22.10;99.90;;;;;;6241903;27;89077;-68
2023/09/25 07:02:34;;;;;;;7.10;6.40;;;22.10;99.90;;;;;;6226013;28;89110;-68
2023/09/25 07:05:36;;;;;;;7.43;6.63;;;22.10;99.90;;;;;;6244570;27;90091;-69
2023/09/25 07:08:38;;;;;;;7.35;6.63;;;22.10;99.90;;;;;;6218374;28;88833;-68
2023/09/25 07:11:40;;;;;;;8.05;6.90;;;22.00;99.90;;;;;;6243648;28;88985;-68
2023/09/25 07:14:48;;;;;;;7.57;6.80;;;22.10;99.90;;;;;;6236715;28;89358;-68
2023/09/25 07:17:53;;;;;;;8.43;6.97;;;22.10;99.90;;;;;;6244408;27;89331;-68
2023/09/25 07:20:59;;;;;;;8.70;7.10;;;22.10;99.90;;;;;;6241689;28;88970;-68
2023/09/25 07:24:01;;;;;;;7.72;6.93;;;22.10;99.90;;;;;;6236786;28;89182;-68
2023/09/25 07:27:03;;;;;;;7.63;6.43;;;22.10;99.90;;;;;;6227202;28;88364;-69
2023/09/25 07:30:08;;;;;;;7.80;6.53;;;22.10;99.90;;;;;;6236989;28;88018;-68
2023/09/25 07:33:10;;;;;;;7.88;6.45;;;22.10;99.90;;;;;;6234761;28;90763;-68
2023/09/25 07:36:12;;;;;;;6.75;6.10;;;22.10;99.90;;;;;;6231330;28;90510;-69
2023/09/25 07:39:18;;;;;;;7.50;6.20;;;22.10;99.90;;;;;;6241322;28;87946;-68
2023/09/25 07:42:25;;;;;;;7.35;6.60;;;22.10;99.90;;;;;;6241065;28;89730;-68
2023/09/25 07:45:30;;;;;;;7.13;6.07;;;22.10;99.90;;;;;;6232484;27;88371;-68
2023/09/25 07:48:35;;;;;;;7.70;6.45;;;22.10;99.90;;;;;;6224183;28;89071;-69
2023/09/25 07:51:37;;;;;;;6.80;6.10;;;22.10;99.90;;;;;;6218178;28;88783;-68
2023/09/25 07:54:39;;;;;;;7.55;6.75;;;22.10;99.90;;;;;;6233205;28;89034;-68
2023/09/25 07:57:43;;;;;;;6.82;6.13;;;22.10;99.90;;;;;;6224681;28;88678;-69
2023/09/25 08:00:48;;;;;;;7.00;6.30;;;22.10;99.90;;;;;;6233379;28;88998;-68
2023/09/25 08:03:51;;;;;;;7.95;6.60;;;22.10;99.90;;;;;;6239398;27;89001;-69
2023/09/25 08:06:53;;;;;;;8.32;6.45;;;22.10;99.90;;;;;;6232259;28;90380;-69
2023/09/25 08:09:57;;;;;;;6.45;5.85;;;22.10;99.90;;;;;;6232642;28;89076;-69
2023/09/25 08:12:58;;;;;;;7.32;6.40;;;22.10;99.90;;;;;;6217616;28;89121;-69
2023/09/25 08:16:06;;;;;;;8.05;6.50;;;22.10;99.90;;;;;;6235196;28;89046;-69
2023/09/25 08:19:08;;;;;;;7.03;6.05;;;22.10;99.90;;;;;;6216029;28;89167;-69
2023/09/25 08:22:11;;;;;;;6.97;6.05;;;22.10;99.90;;;;;;6226829;28;88031;-69
2023/09/25 08:25:13;;;;;;;7.10;6.40;;;22.10;99.90;;;;;;6232879;28;89211;-68
2023/09/25 08:28:16;;;;;;;6.68;6.07;;;22.10;99.90;;;;;;6225173;28;88436;-69
2023/09/25 08:31:19;;;;;;;6.63;5.70;;;22.10;99.90;;;;;;6217874;28;89076;-69
2023/09/25 08:34:22;;;;;;;6.47;5.78;;;22.10;99.90;;;;;;6223709;28;89712;-69
2023/09/25 08:37:24;;;;;;;6.18;5.57;;;22.10;99.90;;;;;;6229699;28;89902;-69
2023/09/25 08:40:27;;;;;;;6.57;5.97;;;22.10;99.90;;;;;;6222223;28;88827;-68
2023/09/25 08:43:29;;;;;;;6.75;6.05;;;22.10;99.90;;;;;;6231318;28;89336;-68
2023/09/25 08:46:33;;;;;;;6.63;5.97;;;22.10;99.90;;;;;;6221596;28;89423;-68
2023/09/25 08:49:37;;;;;;;6.68;5.88;;;22.10;99.90;;;;;;6234778;28;89894;-68
2023/09/25 08:52:41;;;;;;;8.05;6.25;;;22.10;99.90;;;;;;6223639;27;89019;-68
2023/09/25 08:55:44;;;;;;;6.28;5.68;;;22.10;99.90;;;;;;6223210;28;89264;-68
2023/09/25 08:58:46;;;;;;;6.72;5.88;;;22.10;99.90;;;;;;6237540;28;87209;-68
2023/09/25 09:01:51;;;;;;;6.38;5.50;;;22.10;99.90;;;;;;6226577;27;89056;-69
2023/09/25 09:04:53;;;;;;;6.00;5.40;;;22.10;99.90;;;;;;6220516;28;88984;-68
2023/09/25 09:08:00;;;;;;;6.07;5.45;;;22.10;99.90;;;;;;6212566;28;90009;-69
2023/09/25 09:11:10;;;;;;;6.15;5.47;;;22.10;99.90;;;;;;6226325;28;88969;-69
2023/09/25 09:14:12;;;;;;;6.47;5.50;;;22.10;99.90;;;;;;6219165;28;89138;-69
2023/09/25 09:17:15;;;;;;;6.13;5.53;;;22.10;99.90;;;;;;6231811;28;89425;-68
2023/09/25 09:20:17;;;;;;;5.72;5.13;;;22.10;99.90;;;;;;6240713;28;88251;-69
2023/09/25 09:23:20;;;;;;;5.93;5.32;;;22.10;99.90;;;;;;6227834;27;89108;-69
2023/09/25 09:26:23;;;;;;;5.63;5.10;;;22.10;99.90;;;;;;6238534;28;89233;-69
2023/09/25 09:29:25;;;;;;;5.95;5.22;;;22.10;99.90;;;;;;6235607;28;88290;-68
2023/09/25 09:32:29;;;;;;;6.18;4.97;;;22.10;99.90;;;;;;6237636;27;89213;-68
2023/09/25 09:35:31;;;;;;;5.80;5.20;;;22.10;99.90;;;;;;6222220;28;89200;-68
2023/09/25 09:38:36;;;;;;;5.63;5.13;;;22.10;99.90;;;;;;6217797;28;89975;-69
2023/09/25 09:41:39;;;;;;;5.30;4.80;;;22.10;99.90;;;;;;6230168;28;89045;-68
2023/09/25 09:44:41;;;;;;;5.30;4.80;;;22.10;99.90;;;;;;6214931;28;89086;-69
2023/09/25 09:47:46;;;;;;;6.93;5.05;;;22.10;99.90;;;;;;6205599;28;89050;-69
2023/09/25 09:50:53;;;;;;;5.85;5.10;;;22.10;99.90;;;;;;6230436;28;89129;-69
2023/09/25 09:53:55;;;;;;;5.00;4.50;;;22.10;99.90;;;;;;6218808;28;89043;-68
2023/09/25 09:56:59;;;;;;;5.35;4.85;;;22.10;99.90;;;;;;6228598;28;89179;-69
2023/09/25 10:00:02;;;;;;;5.93;5.28;;;22.10;99.90;;;;;;6236254;28;86523;-68
2023/09/25 10:03:06;;;;;;;5.07;4.57;;;22.10;99.90;;;;;;6242627;28;88895;-68
2023/09/25 10:06:10;;;;;;;5.63;4.75;;;22.10;99.90;;;;;;6238754;28;89083;-68
2023/09/25 10:09:14;;;;;;;5.00;4.50;;;22.10;99.90;;;;;;6219228;28;89882;-68
2023/09/25 10:12:40;;;;;;;4.70;4.20;;;22.10;99.90;;;;;;6230338;28;88963;-69
2023/09/25 10:15:52;;;;;;;5.00;4.50;;;22.10;99.90;;;;;;6231578;28;89279;-68
2023/09/25 10:18:57;;;;;;;6.20;5.03;;;22.10;99.90;;;;;;6229302;28;88892;-68
2023/09/25 10:22:11;;;;;;;5.53;4.55;;;22.10;99.90;;;;;;6231339;28;89047;-68
2023/09/25 10:25:14;;;;;;;4.65;4.25;;;22.10;99.90;;;;;;6217943;28;89427;-68
2023/09/25 10:28:17;;;;;;;5.05;4.55;;;22.10;99.90;;;;;;6230728;28;87957;-68
2023/09/25 10:31:20;;;;;;;5.07;4.38;;;22.10;99.90;;;;;;6219876;28;88303;-68
2023/09/25 10:34:26;;;;;;;4.65;4.25;;;22.10;99.90;;;;;;6229779;28;89098;-68
2023/09/25 10:37:28;;;;;;;4.75;4.20;;;22.10;99.90;;;;;;6238187;28;89036;-68
2023/09/25 10:40:30;;;;;;;4.47;4.07;;;22.10;99.90;;;;;;6216996;27;89935;-68
2023/09/25 10:43:33;;;;;;;4.30;3.90;;;22.10;99.90;;;;;;6229076;28;89605;-68
2023/09/25 10:46:35;;;;;;;5.60;4.53;;;22.10;99.90;;;;;;6213718;28;88949;-69
2023/09/25 10:49:39;;;;;;;6.20;5.10;;;22.10;99.90;;;;;;6218126;28;89110;-69
2023/09/25 10:52:41;;;;;;;7.13;5.00;;;22.10;99.90;;;;;;6219654;28;88236;-69
2023/09/25 10:55:44;;;;;;;4.65;4.20;;;22.10;99.90;;;;;;6218882;28;89142;-69
2023/09/25 10:58:50;;;;;;;5.20;4.22;;;22.10;99.90;;;;;;6225146;27;89088;-69
2023/09/25 11:01:53;;;;;;;4.72;4.30;;;22.10;99.90;;;;;;6250544;27;88465;-68
2023/09/25 11:04:56;;;;;;;4.72;4.22;;;22.20;99.90;;;;;;6224995;27;89150;-68
2023/09/25 11:07:58;;;;;;;4.35;3.90;;;22.10;99.90;;;;;;6227374;28;89391;-69
2023/09/25 11:11:02;;;;;;;4.40;4.00;;;22.10;99.90;;;;;;6215267;28;90379;-69
2023/09/25 11:14:04;;;;;;;4.80;4.22;;;22.10;99.90;;;;;;6225014;28;88791;-68
2023/09/25 11:17:06;;;;;;;4.75;4.20;;;22.10;99.90;;;;;;6234571;27;89031;-68
2023/09/25 11:20:18;;;;;;;4.22;3.83;;;22.20;99.90;;;;;;6236457;28;88968;-69
2023/09/25 11:23:20;;;;;;;4.65;4.18;;;22.10;99.90;;;;;;6226283;28;89064;-67
2023/09/25 11:26:27;;;;;;;4.35;3.95;;;22.10;99.90;;;;;;6225181;28;89287;-69
2023/09/25 11:29:30;;;;;;;4.30;3.90;;;22.10;99.90;;;;;;6233244;28;89051;-69
2023/09/25 11:32:33;;;;;;;3.92;3.63;;;22.10;99.90;;;;;;6214722;28;88418;-69
2023/09/25 11:35:38;;;;;;;4.35;3.88;;;22.10;99.90;;;;;;6220131;28;87969;-69
2023/09/25 11:38:40;;;;;;;3.90;3.50;;;22.10;99.90;;;;;;6226260;28;87934;-69
2023/09/25 11:41:42;;;;;;;3.92;3.50;;;22.10;99.90;;;;;;6246010;27;90011;-69
2023/09/25 11:44:44;;;;;;;5.28;4.10;;;22.20;99.90;;;;;;6230862;28;89115;-70
2023/09/25 11:47:46;;;;;;;4.68;3.63;;;22.10;99.90;;;;;;6224580;28;89120;-69
2023/09/25 11:50:50;;;;;;;4.28;3.88;;;22.10;99.90;;;;;;6222947;28;89105;-69
2023/09/25 11:53:52;;;;;;;4.38;3.95;;;22.20;99.90;;;;;;6231250;28;87985;-69
2023/09/25 11:56:54;;;;;;;4.07;3.65;;;22.20;99.90;;;;;;6214710;28;89099;-69
2023/09/25 11:59:56;;;;;;;3.83;3.53;;;22.20;99.90;;;;;;6229455;28;88992;-69
2023/09/25 12:02:59;;;;;;;4.68;3.85;;;22.20;99.90;;;;;;6241861;27;88320;-69
2023/09/25 12:06:03;;;;;;;4.15;3.75;;;22.20;99.90;;;;;;6232510;28;88976;-69
2023/09/25 12:09:11;;;;;;;5.20;4.10;;;22.20;99.90;;;;;;6233474;28;89112;-66
2023/09/25 12:12:13;;;;;;;5.30;3.95;;;22.20;99.90;;;;;;6241593;28;90123;-67
2023/09/25 12:15:16;;;;;;;3.55;3.25;;;22.20;99.90;;;;;;6230680;27;89668;-66
2023/09/25 12:18:18;;;;;;;4.15;3.75;;;22.20;99.90;;;;;;6221258;28;89094;-66
2023/09/25 12:21:22;;;;;;;3.53;3.22;;;22.20;99.90;;;;;;6233191;28;89306;-67
2023/09/25 12:24:23;;;;;;;4.35;3.90;;;22.10;99.90;;;;;;6230120;28;89060;-68
2023/09/25 12:27:25;;;;;;;4.22;3.50;;;22.20;99.90;;;;;;6223148;28;87950;-69
2023/09/25 12:30:27;;;;;;;4.40;3.65;;;22.10;99.90;;;;;;6224046;28;89050;-69
2023/09/25 12:33:30;;;;;;;4.28;3.40;;;22.20;99.90;;;;;;6223887;28;87014;-69
2023/09/25 12:36:33;;;;;;;6.63;4.18;;;22.10;99.90;;;;;;6219301;28;89008;-69
2023/09/25 12:39:35;;;;;;;4.93;3.92;;;22.20;99.90;;;;;;6218258;28;89137;-68
2023/09/25 12:42:37;;;;;;;3.65;3.33;;;22.10;99.90;;;;;;6208187;28;89940;-66
2023/09/25 12:45:39;;;;;;;4.07;3.45;;;22.10;99.90;;;;;;6220555;28;88983;-67
2023/09/25 12:48:41;;;;;;;3.95;3.55;;;22.10;99.90;;;;;;6228182;28;89071;-67
2023/09/25 12:51:44;;;;;;;3.75;3.35;;;22.20;99.90;;;;;;6226083;28;89101;-69
2023/09/25 12:54:48;;;;;;;4.05;3.65;;;22.20;99.90;;;;;;6236339;28;89374;-69
2023/09/25 12:57:50;;;;;;;4.00;3.60;;;22.20;99.90;;;;;;6223850;28;89101;-69
2023/09/25 13:00:52;;;;;;;3.70;3.40;;;22.20;99.90;;;;;;6228444;28;89222;-69
2023/09/25 13:03:54;;;;;;;4.13;3.33;;;22.20;99.90;;;;;;6234903;28;88463;-69
2023/09/25 13:06:57;;;;;;;3.92;3.60;;;22.20;99.90;;;;;;6230070;28;89239;-69
2023/09/25 13:09:59;;;;;;;3.45;3.15;;;22.20;99.90;;;;;;6239945;28;89131;-69
2023/09/25 13:13:01;;;;;;;3.78;3.40;;;22.20;99.90;;;;;;6231404;27;90033;-69
2023/09/25 13:16:04;;;;;;;4.15;3.75;;;22.20;99.90;;;;;;6227299;28;89030;-68
2023/09/25 13:19:06;;;;;;;5.00;3.95;;;22.20;99.90;;;;;;6231126;28;88289;-69
2023/09/25 13:22:09;;;;;;;4.18;3.63;;;22.20;99.90;;;;;;6220402;28;89102;-69
2023/09/25 13:25:11;;;;;;;3.78;3.35;;;22.20;99.90;;;;;;6229736;28;89015;-69
2023/09/25 13:28:13;;;;;;;3.42;3.13;;;22.20;99.90;;;;;;6208955;28;89075;-69
2023/09/25 13:31:15;;;;;;;3.53;3.20;;;22.20;99.90;;;;;;6208223;28;89155;-68
2023/09/25 13:34:17;;;;;;;3.60;3.30;;;22.20;99.90;;;;;;6226781;28;88289;-69
2023/09/25 13:37:21;;;;;;;3.42;3.13;;;22.20;99.90;;;;;;6231356;28;89155;-69
2023/09/25 13:40:23;;;;;;;3.28;2.97;;;22.20;99.90;;;;;;6239461;27;89060;-69
2023/09/25 13:43:27;;;;;;;4.55;3.35;;;22.20;99.90;;;;;;6230239;28;90001;-69
2023/09/25 13:46:29;;;;;;;3.70;3.40;;;22.20;99.90;;;;;;6235585;27;87846;-69
2023/09/25 13:49:31;;;;;;;3.97;3.45;;;22.20;99.90;;;;;;6229362;28;89171;-69
2023/09/25 13:52:34;;;;;;;3.75;3.28;;;22.20;99.90;;;;;;6229275;28;87944;-69
2023/09/25 13:55:36;;;;;;;3.88;3.42;;;22.20;99.90;;;;;;6218176;28;89040;-69
2023/09/25 13:58:38;;;;;;;3.53;3.22;;;22.10;99.90;;;;;;6218689;28;89263;-69
2023/09/25 14:01:40;;;;;;;3.15;2.90;;;22.20;99.90;;;;;;6225038;28;87974;-69
2023/09/25 14:04:42;;;;;;;3.60;3.30;;;22.20;99.90;;;;;;6226776;28;88551;-69
2023/09/25 14:07:46;;;;;;;3.60;2.95;;;22.20;99.90;;;;;;6229389;28;89275;-69
2023/09/25 14:10:48;;;;;;;4.82;3.70;;;22.20;99.90;;;;;;6214079;28;88928;-70
2023/09/25 14:13:50;;;;;;;3.70;3.20;;;22.20;99.90;;;;;;6217708;28;90016;-67
2023/09/25 14:16:53;;;;;;;3.63;3.25;;;22.20;99.90;;;;;;6230162;28;89015;-67
2023/09/25 14:19:55;;;;;;;4.13;3.47;;;22.10;99.90;;;;;;6230325;28;88724;-67
2023/09/25 14:22:58;;;;;;;4.40;3.55;;;22.20;99.90;;;;;;6229880;28;89076;-69
2023/09/25 14:26:00;;;;;;;3.30;3.00;;;22.20;99.90;;;;;;6229822;28;89347;-69
2023/09/25 14:29:02;;;;;;;3.50;3.10;;;22.20;99.90;;;;;;6233482;28;87954;-69
2023/09/25 14:32:04;;;;;;;4.22;3.40;;;22.20;99.90;;;;;;6222561;27;89115;-69
2023/09/25 14:35:07;;;;;;;3.95;3.55;;;22.10;99.90;;;;;;6225861;28;88250;-69
2023/09/25 14:38:11;;;;;;;3.97;3.17;;;22.20;99.90;;;;;;6233985;27;87961;-70
2023/09/25 14:41:13;;;;;;;3.72;3.05;;;22.20;99.90;;;;;;6219943;28;89338;-69
2023/09/25 14:44:16;;;;;;;4.07;3.38;;;22.20;99.90;;;;;;6217874;28;89931;-69
2023/09/25 14:47:20;;;;;;;3.50;3.20;;;22.20;99.90;;;;;;6233490;28;89167;-69
2023/09/25 14:50:22;;;;;;;3.33;3.00;;;22.20;99.90;;;;;;6235652;28;88906;-69
2023/09/25 14:53:25;;;;;;;4.85;3.47;;;22.20;99.90;;;;;;6239614;28;89099;-67
2023/09/25 14:56:27;;;;;;;4.00;3.22;;;22.20;99.90;;;;;;6239402;28;88247;-67
2023/09/25 14:59:30;;;;;;;3.22;2.92;;;22.10;99.90;;;;;;6221719;28;89418;-67
2023/09/25 15:02:32;;;;;;;3.78;3.38;;;22.10;99.90;;;;;;6219877;28;87956;-67
2023/09/25 15:05:34;;;;;;;3.50;3.17;;;22.20;99.90;;;;;;6230404;27;88691;-67
2023/09/25 15:08:37;;;;;;;4.32;3.35;;;22.10;99.90;;;;;;6222111;28;88962;-67
2023/09/25 15:11:39;;;;;;;3.42;3.10;;;22.10;99.90;;;;;;6232749;28;89060;-67
2023/09/25 15:14:41;;;;;;;3.45;3.15;;;22.10;99.90;;;;;;6234253;28;90095;-67
2023/09/25 15:17:43;;;;;;;4.35;3.63;;;22.20;99.90;;;;;;6235035;28;89033;-66
2023/09/25 15:20:45;;;;;;;3.70;3.38;;;22.10;99.90;;;;;;6235857;27;89121;-69
2023/09/25 15:23:49;;;;;;;3.50;3.20;;;22.10;99.90;;;;;;6233169;28;89658;-69
2023/09/25 15:26:51;;;;;;;4.82;3.38;;;22.20;99.90;;;;;;6232093;28;89026;-69
2023/09/25 15:29:53;;;;;;;3.35;3.05;;;22.20;99.90;;;;;;6241845;28;89140;-69
2023/09/25 15:32:55;;;;;;;3.60;3.30;;;22.20;99.90;;;;;;6233383;27;89754;-69
2023/09/25 15:35:57;;;;;;;3.42;3.10;;;22.20;99.90;;;;;;6221802;28;88340;-69
2023/09/25 15:39:01;;;;;;;3.35;3.05;;;22.10;99.90;;;;;;6232855;28;89228;-69
2023/09/25 15:42:03;;;;;;;3.20;2.90;;;22.10;99.90;;;;;;6233313;28;89089;-69
2023/09/25 15:45:06;;;;;;;3.13;2.83;;;22.10;99.90;;;;;;6241080;28;90017;-69
2023/09/25 15:48:08;;;;;;;3.42;3.13;;;22.10;99.90;;;;;;6228869;28;89157;-69
2023/09/25 15:51:12;;;;;;;4.43;3.45;;;22.20;99.90;;;;;;6230436;28;89182;-69